Weather reports worldwide

Advertisment
Zugspitze, Germany (10961): temperature & dewpoint: 11.10.2018 06:00:00 - 17.10.2018 06:00:00 (CEST)Zugspitze, Germany (10961): wind speed & gusts: 11.10.2018 06:00:00 - 17.10.2018 06:00:00 (CEST)Zugspitze, Germany (10961): wind direction: 11.10.2018 06:00:00 - 17.10.2018 06:00:00 (CEST)Zugspitze, Germany (10961): visibility: 11.10.2018 06:00:00 - 17.10.2018 06:00:00 (CEST)Zugspitze, Germany (10961): sunshine duration: 11.10.2018 06:00:00 - 17.10.2018 06:00:00 (CEST)
Date & Time tt [°C] td [°C] ff [km/h] ff [kn] fx [km/h] fx [kn] dd vv [km] sd [min]
17.10.2018 06:00:00 -1,3 -2,8 14 7 19 10 WNW 19 0
17.10.2018 05:00:00 -1,0 -3,4 16 9 20 11 W 30 0
17.10.2018 04:00:00 -1,1 -3,6 13 7 16 9 WSW 32 0
17.10.2018 03:00:00 -0,9 -3,5 12 7 16 9 WSW 34 0
17.10.2018 02:00:00 -0,8 -3,6 11 6 16 9 WSW 33 0
17.10.2018 01:00:00 -0,6 -3,7 12 6 18 10 WSW 37 0
17.10.2018 00:00:00 -0,6 -3,7 14 7 18 10 WSW 36 0
16.10.2018 23:00:00 -0,6 -3,6 9 5 16 8 W 34 0
16.10.2018 22:00:00 -0,5 -3,4 8 4 13 7 WSW 41 0
16.10.2018 21:00:00 -0,5 -3,2 9 5 18 10 WSW 33 0
16.10.2018 20:00:00 -0,2 -3,3 14 8 20 11 SW 34 0
16.10.2018 19:00:00 0,2 -3,7 12 7 16 9 SSW 39 29
16.10.2018 18:00:00 1,3 -3,0 9 5 19 11 SSE 39 50
16.10.2018 17:00:00 0,7 -3,3 12 7 19 10 SSE 41 50
16.10.2018 16:00:00 2,1 -2,9 13 7 22 12 SE 43 58
16.10.2018 15:00:00 0,3 -4,5 15 8 23 12 SE 44 60
16.10.2018 14:00:00 0,3 -4,3 15 8 27 15 SE 46 60
16.10.2018 13:00:00 -1,0 -4,7 22 12 36 19 ESE 46 60
16.10.2018 12:00:00 -0,6 -4,5 22 12 29 16 ESE 35 60
16.10.2018 11:00:00 -0,7 -4,3 16 9 24 13 ESE 39 60
16.10.2018 10:00:00 0,2 -4,7 7 4 14 8 ESE 53 60
16.10.2018 09:00:00 -1,3 -5,3 5 3 16 9 NNE 46 60
16.10.2018 08:00:00 -2,1 -5,3 12 7 14 8 NNW 43 7
16.10.2018 07:00:00 -2,0 -5,7 12 6 15 8 NNW 50 0
16.10.2018 06:00:00 -1,8 -5,7 4 2 16 9 NW 52 0
16.10.2018 05:00:00 -2,2 -4,8 16 8 21 11 SW 32 0
16.10.2018 04:00:00 -1,9 -5,2 9 5 26 14 SW 46 0
16.10.2018 03:00:00 -1,9 -5,1 15 8 33 18 SW 48 0
16.10.2018 02:00:00 -1,7 -5,2 21 11 44 24 SSW 43 0
16.10.2018 01:00:00 -1,7 -4,8 30 16 46 25 S 45 0
16.10.2018 00:00:00 -1,3 -5,3 33 18 50 27 S 47 0
15.10.2018 23:00:00 -1,3 -5,4 35 19 55 30 SSE 55 0
15.10.2018 22:00:00 -1,4 -5,1 36 20 67 36 SSE 53 0
15.10.2018 21:00:00 -1,1 -5,3 33 18 67 36 S 56 0
15.10.2018 20:00:00 -1,0 -5,2 45 24 66 36 S 58 0
15.10.2018 19:00:00 -1,0 -4,5 33 18 48 26 SSE 47 31
15.10.2018 18:00:00 0,0 -4,3 25 13 37 20 SSE 48 60
15.10.2018 17:00:00 0,5 -4,3 22 12 37 20 SE 44 58
15.10.2018 16:00:00 0,4 -4,2 24 13 40 21 SE 58 44
15.10.2018 15:00:00 -0,1 -4,0 23 13 41 22 SE 48 54
15.10.2018 14:00:00 0,1 -4,2 29 16 46 25 S 41 59
15.10.2018 13:00:00 -1,2 -5,0 31 17 49 26 SE 59 60
15.10.2018 12:00:00 -1,1 -5,4 26 14 46 25 SE 58 60
15.10.2018 11:00:00 -0,8 -5,3 29 16 41 22 SE 75 60
15.10.2018 10:00:00 -1,6 -5,8 29 16 38 20 SE 66 60
15.10.2018 09:00:00 -1,9 -5,5 33 18 45 24 SE 55 59
15.10.2018 08:00:00 -2,2 -5,2 32 17 45 24 SE 51 3
15.10.2018 07:00:00 -2,1 -4,5 31 17 46 25 SE 46 0
15.10.2018 06:00:00 -1,5 -4,4 33 18 42 23 SE 60 0
15.10.2018 05:00:00 -1,2 -4,5 31 17 47 26 SE 54 0
15.10.2018 04:00:00 -1,1 -4,6 34 18 60 33 SE 61 0
15.10.2018 03:00:00 -1,1 -4,5 40 21 51 27 SE 55 0
15.10.2018 02:00:00 -1,0 -5,1 39 21 59 32 SE 64 0
15.10.2018 01:00:00 -1,0 -5,6 48 26 69 37 SE 63 0
15.10.2018 00:00:00 -1,3 -5,5 51 28 69 37 SE 71 0
14.10.2018 23:00:00 -1,0 -5,4 44 24 57 31 SE 70 0
14.10.2018 22:00:00 -0,7 -5,3 36 20 48 26 SE 72 0
14.10.2018 21:00:00 -0,2 -5,0 37 20 50 27 SE 64 0
14.10.2018 20:00:00 0,0 -4,6 34 18 50 27 SE 71 0
14.10.2018 19:00:00 0,8 -4,8 32 18 44 24 SE 75 39
14.10.2018 18:00:00 1,7 -4,9 29 16 43 23 SE 69 60
14.10.2018 17:00:00 2,2 -4,8 26 14 43 23 ESE 75 60
14.10.2018 16:00:00 2,0 -5,5 33 18 50 27 ESE 71 60
14.10.2018 15:00:00 2,2 -6,0 31 17 64 34 SSE 61 60
14.10.2018 14:00:00 1,5 -5,8 39 21 63 34 SE 50 60
14.10.2018 13:00:00 1,1 -6,1 36 19 61 33 ESE 75 60
14.10.2018 12:00:00 1,3 -6,8 39 21 60 32 SE 56 60
14.10.2018 11:00:00 1,2 -8,1 42 23 58 31 SE 61 59
14.10.2018 10:00:00 1,3 -9,2 34 18 42 23 SE 75 60
14.10.2018 09:00:00 1,3 -10,1 24 13 44 24 SE 75 60
14.10.2018 08:00:00 0,9 -10,1 34 19 47 25 SSE 75 16
14.10.2018 07:00:00 1,0 -11,6 32 17 41 22 SSE 75 0
14.10.2018 06:00:00 1,7 -14,2 31 17 48 26 SSE 75 0
14.10.2018 05:00:00 1,9 -13,9 29 16 45 24 S 75 0
14.10.2018 04:00:00 1,8 -13,8 31 17 40 21 SSE 75 0
14.10.2018 03:00:00 1,7 -12,9 29 16 44 24 SE 75 0
14.10.2018 02:00:00 2,3 -13,2 31 17 42 23 SSE 75 0
14.10.2018 01:00:00 2,0 -9,6 31 17 44 24 SSE 75 0
14.10.2018 00:00:00 1,9 -6,9 29 16 41 22 SE 75 0
13.10.2018 23:00:00 1,8 -5,7 32 18 42 23 SE 75 0
13.10.2018 22:00:00 2,1 -5,0 32 17 40 21 SE 75 0
13.10.2018 21:00:00 2,4 -2,6 31 17 45 24 SE 75 0
13.10.2018 20:00:00 3,0 -1,5 30 16 38 21 SSE 75 0
13.10.2018 19:00:00 3,0 -0,6 23 12 26 14 SE 75 42
13.10.2018 18:00:00 3,9 0,3 20 11 25 14 SE 69 60
13.10.2018 17:00:00 4,0 0,6 20 11 27 14 SE 70 60
13.10.2018 16:00:00 4,5 -0,1 19 11 31 17 SE 57 60
13.10.2018 15:00:00 4,2 -1,0 22 12 32 17 ESE 75 60
13.10.2018 14:00:00 3,9 -1,3 22 12 29 16 SE 53 60
13.10.2018 13:00:00 3,9 -2,9 19 10 25 13 SE 59 60
13.10.2018 12:00:00 3,9 -3,5 19 11 36 20 ESE 75 60
13.10.2018 11:00:00 2,6 -2,5 30 16 39 21 ESE 73 60
13.10.2018 10:00:00 2,0 -3,3 29 15 32 17 ESE 74 60
13.10.2018 09:00:00 1,9 -2,9 24 13 26 14 ESE 64 60
13.10.2018 08:00:00 1,9 -6,1 19 10 21 11 ESE 75 18
13.10.2018 07:00:00 1,9 -4,5 10 5 16 8 ENE 75 0
13.10.2018 06:00:00 2,1 -3,8 9 5 13 7 NE 75 0
13.10.2018 05:00:00 2,1 -1,7 8 4 12 7 N 75 0
13.10.2018 04:00:00 2,2 -3,0 8 5 16 9 N 75 0
13.10.2018 03:00:00 3,3 -5,6 11 6 16 9 NNW 75 0
13.10.2018 02:00:00 2,5 -0,4 8 4 12 6 W 69 0
13.10.2018 01:00:00 2,3 -2,2 8 4 11 6 NNW 75 0
13.10.2018 00:00:00 2,4 0,0 5 3 10 5 W 70 0
12.10.2018 23:00:00 2,2 -0,1 9 5 13 7 NW 75 0
12.10.2018 22:00:00 2,5 -0,5 9 5 20 11 NW 75 0
12.10.2018 21:00:00 3,2 -1,0 13 7 26 14 SW 75 0
12.10.2018 20:00:00 3,3 -0,5 21 11 28 15 S 75 0
12.10.2018 19:00:00 3,3 0,1 20 11 23 12 S 75 41
12.10.2018 18:00:00 4,0 0,7 16 9 24 13 SE 75 60
12.10.2018 17:00:00 3,3 0,6 18 10 27 15 SE 51 60
12.10.2018 16:00:00 2,8 0,5 22 12 28 15 ESE 44 58
12.10.2018 15:00:00 2,7 -1,0 19 11 28 15 SE 65 60
12.10.2018 14:00:00 2,5 -0,3 20 11 28 15 SE 75 60
12.10.2018 13:00:00 2,3 0,1 17 9 26 14 ESE 43 59
12.10.2018 12:00:00 2,0 -0,9 14 8 22 12 ESE 75 60
12.10.2018 11:00:00 3,1 -1,1 8 4 14 7 ESE 75 60
12.10.2018 10:00:00 2,0 -2,5 5 3 16 8 NNE 75 60
12.10.2018 09:00:00 1,6 -2,4 5 3 16 8 ENE 75 60
12.10.2018 08:00:00 0,5 -1,9 7 4 22 12 NNW 75 10
12.10.2018 07:00:00 0,8 -1,9 13 7 29 16 NNW 75 0
12.10.2018 06:00:00 1,3 -1,5 16 9 29 15 NNW 75 0
12.10.2018 05:00:00 1,2 -1,8 10 5 24 13 WNW 75 0
12.10.2018 04:00:00 1,0 -1,7 10 5 40 22 W 75 0
12.10.2018 03:00:00 1,2 -1,7 18 10 47 26 WSW 75 0
12.10.2018 02:00:00 1,3 -1,6 32 17 54 29 SW 75 0
12.10.2018 01:00:00 1,1 -1,1 39 21 64 35 S 71 0
12.10.2018 00:00:00 1,6 -0,9 39 21 56 30 S 75 0
11.10.2018 23:00:00 1,3 -1,0 34 18 49 26 S 59 0
11.10.2018 22:00:00 2,0 -1,2 16 9 41 22 SE 69 0
11.10.2018 21:00:00 2,1 -1,3 27 14 34 18 S 69 0
11.10.2018 20:00:00 2,6 -1,2 21 11 34 19 SSE 74 0
11.10.2018 19:00:00 2,0 -1,6 26 14 31 17 S 57 0
11.10.2018 18:00:00 1,7 -1,6 22 12 33 18 SE 48 0
11.10.2018 17:00:00 2,0 -1,7 24 13 46 25 SE 75 8
11.10.2018 16:00:00 2,3 -1,6 24 13 44 24 SE 75 40
11.10.2018 15:00:00 3,0 -2,3 30 16 44 24 SE 70 58
11.10.2018 14:00:00 2,0 -1,9 35 19 44 24 SE 73 58
11.10.2018 13:00:00 2,9 -2,6 38 21 56 30 SSE 58 60
11.10.2018 12:00:00 1,8 -3,6 37 20 51 28 SE 75 60
11.10.2018 11:00:00 2,1 -4,3 33 18 51 28 SE 75 60
11.10.2018 10:00:00 2,4 -4,8 34 18 76 41 SSE 75 60
11.10.2018 09:00:00 1,5 -6,1 53 28 81 44 S 75 60
11.10.2018 08:00:00 -0,1 -5,6 45 25 70 38 SSE 75 22
11.10.2018 07:00:00 -0,1 -5,5 52 28 79 42 SSE 75 0
11.10.2018 06:00:00 -0,2 -6,0 57 31 74 40 SE 75 0

tt = temperature
td = dewpoint
ff = wind speed
fx = gusts
dd = wind direction
vv = visibility
sd = sunshine duration

Next stations